sensor_id;sensor_type;location;lat;lon;timestamp;pressure;altitude;pressure_sealevel;temperature;humidity
7376;BME280;3728;42.266;24.944;2022-12-05T00:01:42;100783.13;;;8.91;100.00
7376;BME280;3728;42.266;24.944;2022-12-05T00:04:12;100779.22;;;8.94;100.00
7376;BME280;3728;42.266;24.944;2022-12-05T00:06:41;100783.09;;;8.86;100.00
7376;BME280;3728;42.266;24.944;2022-12-05T00:09:10;100793.00;;;8.79;100.00
7376;BME280;3728;42.266;24.944;2022-12-05T00:11:41;100790.16;;;8.86;100.00
7376;BME280;3728;42.266;24.944;2022-12-05T00:14:10;100792.53;;;8.98;100.00
7376;BME280;3728;42.266;24.944;2022-12-05T00:16:42;100797.75;;;8.98;100.00
7376;BME280;3728;42.266;24.944;2022-12-05T00:19:13;100791.22;;;8.95;100.00
7376;BME280;3728;42.266;24.944;2022-12-05T00:21:42;100795.16;;;9.08;100.00
7376;BME280;3728;42.266;24.944;2022-12-05T00:24:13;100789.13;;;9.02;100.00
7376;BME280;3728;42.266;24.944;2022-12-05T00:26:42;100787.84;;;8.94;100.00
7376;BME280;3728;42.266;24.944;2022-12-05T00:29:10;100792.78;;;8.91;100.00
7376;BME280;3728;42.266;24.944;2022-12-05T00:31:38;100788.31;;;8.86;100.00
7376;BME280;3728;42.266;24.944;2022-12-05T00:34:06;100789.91;;;8.87;100.00
7376;BME280;3728;42.266;24.944;2022-12-05T00:36:34;100788.88;;;8.93;100.00
7376;BME280;3728;42.266;24.944;2022-12-05T00:39:08;100783.13;;;8.91;100.00
7376;BME280;3728;42.266;24.944;2022-12-05T00:41:37;100779.47;;;8.87;100.00
7376;BME280;3728;42.266;24.944;2022-12-05T00:44:04;100782.28;;;8.76;100.00
7376;BME280;3728;42.266;24.944;2022-12-05T00:46:34;100785.19;;;8.84;100.00
7376;BME280;3728;42.266;24.944;2022-12-05T00:49:03;100790.94;;;8.86;100.00
7376;BME280;3728;42.266;24.944;2022-12-05T00:51:35;100783.38;;;8.85;100.00
7376;BME280;3728;42.266;24.944;2022-12-05T00:54:11;100784.41;;;8.89;100.00
7376;BME280;3728;42.266;24.944;2022-12-05T00:56:41;100786.22;;;8.83;100.00
7376;BME280;3728;42.266;24.944;2022-12-05T00:59:15;100778.94;;;8.85;100.00
7376;BME280;3728;42.266;24.944;2022-12-05T01:01:45;100787.53;;;8.86;100.00
7376;BME280;3728;42.266;24.944;2022-12-05T01:04:20;100784.41;;;8.84;100.00
7376;BME280;3728;42.266;24.944;2022-12-05T01:06:53;100780.75;;;8.85;100.00
7376;BME280;3728;42.266;24.944;2022-12-05T01:09:23;100789.66;;;8.94;100.00
7376;BME280;3728;42.266;24.944;2022-12-05T01:11:51;100778.41;;;8.88;100.00
7376;BME280;3728;42.266;24.944;2022-12-05T01:14:20;100777.09;;;8.86;100.00
7376;BME280;3728;42.266;24.944;2022-12-05T01:16:51;100777.38;;;8.94;100.00
7376;BME280;3728;42.266;24.944;2022-12-05T01:19:24;100776.38;;;9.11;100.00
7376;BME280;3728;42.266;24.944;2022-12-05T01:21:54;100770.63;;;9.09;100.00
7376;BME280;3728;42.266;24.944;2022-12-05T01:24:23;100776.63;;;9.04;100.00
7376;BME280;3728;42.266;24.944;2022-12-05T01:26:52;100776.88;;;8.92;100.00
7376;BME280;3728;42.266;24.944;2022-12-05T01:29:22;100781.03;;;8.99;100.00
7376;BME280;3728;42.266;24.944;2022-12-05T01:31:50;100773.25;;;9.14;100.00
7376;BME280;3728;42.266;24.944;2022-12-05T01:34:18;100775.31;;;9.02;100.00
7376;BME280;3728;42.266;24.944;2022-12-05T01:36:46;100770.84;;;8.92;100.00
7376;BME280;3728;42.266;24.944;2022-12-05T01:39:15;100768.47;;;8.80;100.00
7376;BME280;3728;42.266;24.944;2022-12-05T01:41:45;100779.97;;;8.84;100.00
7376;BME280;3728;42.266;24.944;2022-12-05T01:46:47;100760.09;;;8.83;100.00
7376;BME280;3728;42.266;24.944;2022-12-05T01:49:19;100762.72;;;8.88;100.00
7376;BME280;3728;42.266;24.944;2022-12-05T01:51:51;100761.94;;;8.88;100.00
7376;BME280;3728;42.266;24.944;2022-12-05T01:54:47;100756.97;;;8.81;100.00
7376;BME280;3728;42.266;24.944;2022-12-05T01:57:17;100755.66;;;8.79;100.00
7376;BME280;3728;42.266;24.944;2022-12-05T01:59:49;100748.34;;;8.86;100.00
7376;BME280;3728;42.266;24.944;2022-12-05T02:02:19;100745.44;;;8.72;100.00
7376;BME280;3728;42.266;24.944;2022-12-05T02:04:59;100744.97;;;8.85;100.00
7376;BME280;3728;42.266;24.944;2022-12-05T02:07:32;100751.50;;;8.93;100.00
7376;BME280;3728;42.266;24.944;2022-12-05T02:10:01;100752.06;;;9.10;100.00
7376;BME280;3728;42.266;24.944;2022-12-05T02:12:29;100743.44;;;9.10;100.00
7376;BME280;3728;42.266;24.944;2022-12-05T02:32:09;100743.41;;;8.84;100.00
7376;BME280;3728;42.266;24.944;2022-12-05T02:37:48;100746.28;;;8.83;100.00
7376;BME280;3728;42.266;24.944;2022-12-05T02:40:49;100742.84;;;8.77;100.00
7376;BME280;3728;42.266;24.944;2022-12-05T02:43:40;100744.44;;;8.78;100.00
7376;BME280;3728;42.266;24.944;2022-12-05T02:46:16;100743.09;;;8.81;100.00
7376;BME280;3728;42.266;24.944;2022-12-05T02:48:53;100749.91;;;8.82;100.00
7376;BME280;3728;42.266;24.944;2022-12-05T02:51:29;100743.66;;;8.83;100.00
7376;BME280;3728;42.266;24.944;2022-12-05T02:54:02;100749.41;;;8.85;100.00
7376;BME280;3728;42.266;24.944;2022-12-05T02:56:35;100742.34;;;8.75;100.00
7376;BME280;3728;42.266;24.944;2022-12-05T02:59:03;100735.00;;;8.72;100.00
7376;BME280;3728;42.266;24.944;2022-12-05T03:01:31;100730.81;;;8.76;100.00
7376;BME280;3728;42.266;24.944;2022-12-05T03:04:01;100734.72;;;8.74;100.00
7376;BME280;3728;42.266;24.944;2022-12-05T03:06:37;100735.00;;;8.72;100.00
7376;BME280;3728;42.266;24.944;2022-12-05T03:09:21;100736.81;;;8.67;100.00
7376;BME280;3728;42.266;24.944;2022-12-05T03:15:01;100735.78;;;8.73;100.00
7376;BME280;3728;42.266;24.944;2022-12-05T03:17:34;100741.53;;;8.70;100.00
7376;BME280;3728;42.266;24.944;2022-12-05T03:20:24;100733.44;;;8.76;100.00
7376;BME280;3728;42.266;24.944;2022-12-05T03:26:17;100755.88;;;8.72;100.00
7376;BME280;3728;42.266;24.944;2022-12-05T03:31:42;100754.34;;;8.71;100.00
7376;BME280;3728;42.266;24.944;2022-12-05T03:34:21;100754.34;;;8.81;100.00
7376;BME280;3728;42.266;24.944;2022-12-05T03:36:58;100745.44;;;8.72;100.00
7376;BME280;3728;42.266;24.944;2022-12-05T03:39:34;100752.22;;;8.68;100.00
7376;BME280;3728;42.266;24.944;2022-12-05T03:42:17;100755.84;;;8.62;100.00
7376;BME280;3728;42.266;24.944;2022-12-05T03:45:26;100748.56;;;8.59;100.00
7376;BME280;3728;42.266;24.944;2022-12-05T03:48:18;100750.66;;;8.67;100.00
7376;BME280;3728;42.266;24.944;2022-12-05T03:51:04;100755.63;;;8.69;100.00
7376;BME280;3728;42.266;24.944;2022-12-05T03:53:54;100753.31;;;8.77;100.00
7376;BME280;3728;42.266;24.944;2022-12-05T03:56:51;100739.97;;;8.69;100.00
7376;BME280;3728;42.266;24.944;2022-12-05T03:59:51;100748.59;;;8.74;100.00
7376;BME280;3728;42.266;24.944;2022-12-05T04:03:01;100748.88;;;8.83;100.00
7376;BME280;3728;42.266;24.944;2022-12-05T04:05:53;100755.66;;;8.79;100.00
7376;BME280;3728;42.266;24.944;2022-12-05T04:08:26;100749.09;;;8.66;100.00
7376;BME280;3728;42.266;24.944;2022-12-05T04:11:08;100749.84;;;8.67;100.00
7376;BME280;3728;42.266;24.944;2022-12-05T04:13:51;100747.00;;;8.68;100.00
7376;BME280;3728;42.266;24.944;2022-12-05T04:16:28;100741.75;;;8.58;100.00
7376;BME280;3728;42.266;24.944;2022-12-05T04:19:46;100745.69;;;8.66;100.00
7376;BME280;3728;42.266;24.944;2022-12-05T04:22:55;100741.53;;;8.70;100.00
7376;BME280;3728;42.266;24.944;2022-12-05T04:25:26;100739.44;;;8.72;100.00
7376;BME280;3728;42.266;24.944;2022-12-05T04:31:10;100744.13;;;8.65;100.00
7376;BME280;3728;42.266;24.944;2022-12-05T04:33:46;100749.88;;;8.72;100.00
7376;BME280;3728;42.266;24.944;2022-12-05T04:39:20;100745.44;;;8.72;100.00
7376;BME280;3728;42.266;24.944;2022-12-05T04:41:59;100743.63;;;8.73;100.00
7376;BME280;3728;42.266;24.944;2022-12-05T04:44:37;100747.59;;;8.85;100.00
7376;BME280;3728;42.266;24.944;2022-12-05T04:47:09;100748.13;;;8.92;100.00
7376;BME280;3728;42.266;24.944;2022-12-05T04:49:46;100753.59;;;8.96;100.00
7376;BME280;3728;42.266;24.944;2022-12-05T04:52:20;100743.94;;;8.91;100.00
7376;BME280;3728;42.266;24.944;2022-12-05T04:54:53;100746.28;;;8.83;100.00
7376;BME280;3728;42.266;24.944;2022-12-05T04:57:30;100752.78;;;8.80;100.00
7376;BME280;3728;42.266;24.944;2022-12-05T05:00:05;100752.78;;;8.80;100.00
7376;BME280;3728;42.266;24.944;2022-12-05T05:02:50;100753.81;;;8.79;100.00
7376;BME280;3728;42.266;24.944;2022-12-05T05:05:27;100753.81;;;8.79;100.00
7376;BME280;3728;42.266;24.944;2022-12-05T05:07:55;100761.94;;;8.78;100.00
7376;BME280;3728;42.266;24.944;2022-12-05T05:10:38;100762.19;;;8.81;100.00
7376;BME280;3728;42.266;24.944;2022-12-05T05:13:07;100764.22;;;8.69;100.00
7376;BME280;3728;42.266;24.944;2022-12-05T05:15:35;100756.69;;;8.73;100.00
7376;BME280;3728;42.266;24.944;2022-12-05T05:18:02;100756.66;;;8.68;100.00
7376;BME280;3728;42.266;24.944;2022-12-05T05:20:30;100763.47;;;8.74;100.00
7376;BME280;3728;42.266;24.944;2022-12-05T05:22:58;100749.13;;;8.71;100.00
7376;BME280;3728;42.266;24.944;2022-12-05T05:25:25;100754.09;;;8.78;100.00
7376;BME280;3728;42.266;24.944;2022-12-05T05:27:55;100753.81;;;8.74;100.00
7376;BME280;3728;42.266;24.944;2022-12-05T05:30:23;100751.72;;;8.71;100.00
7376;BME280;3728;42.266;24.944;2022-12-05T05:32:51;100758.25;;;8.79;100.00
7376;BME280;3728;42.266;24.944;2022-12-05T05:35:19;100758.03;;;8.85;100.00
7376;BME280;3728;42.266;24.944;2022-12-05T05:37:47;100750.44;;;8.89;100.00
7376;BME280;3728;42.266;24.944;2022-12-05T05:40:15;100756.97;;;8.81;100.00
7376;BME280;3728;42.266;24.944;2022-12-05T05:42:44;100755.66;;;8.79;100.00
7376;BME280;3728;42.266;24.944;2022-12-05T05:45:13;100752.78;;;8.80;100.00
7376;BME280;3728;42.266;24.944;2022-12-05T05:47:42;100756.19;;;8.86;100.00
7376;BME280;3728;42.266;24.944;2022-12-05T05:50:10;100761.16;;;8.87;100.00
7376;BME280;3728;42.266;24.944;2022-12-05T05:52:46;100752.03;;;8.85;100.00
7376;BME280;3728;42.266;24.944;2022-12-05T05:55:14;100757.22;;;8.80;100.00
7376;BME280;3728;42.266;24.944;2022-12-05T05:57:41;100759.56;;;8.81;100.00
7376;BME280;3728;42.266;24.944;2022-12-05T06:00:10;100766.13;;;8.84;100.00
7376;BME280;3728;42.266;24.944;2022-12-05T06:02:38;100761.66;;;8.79;100.00
7376;BME280;3728;42.266;24.944;2022-12-05T06:05:06;100759.31;;;8.78;100.00
7376;BME280;3728;42.266;24.944;2022-12-05T06:07:34;100762.75;;;8.93;100.00
7376;BME280;3728;42.266;24.944;2022-12-05T06:10:02;100757.81;;;8.97;100.00
7376;BME280;3728;42.266;24.944;2022-12-05T06:12:30;100756.22;;;8.96;100.00
7376;BME280;3728;42.266;24.944;2022-12-05T06:14:58;100767.19;;;8.98;100.00
7376;BME280;3728;42.266;24.944;2022-12-05T06:17:25;100772.69;;;8.97;100.00
7376;BME280;3728;42.266;24.944;2022-12-05T06:19:53;100774.28;;;9.08;100.00
7376;BME280;3728;42.266;24.944;2022-12-05T06:22:21;100772.72;;;9.07;100.00
7376;BME280;3728;42.266;24.944;2022-12-05T06:24:49;100781.59;;;9.06;100.00
7376;BME280;3728;42.266;24.944;2022-12-05T06:27:17;100772.16;;;9.05;100.00
7376;BME280;3728;42.266;24.944;2022-12-05T06:29:44;100779.72;;;8.96;100.00
7376;BME280;3728;42.266;24.944;2022-12-05T06:32:12;100785.25;;;9.00;100.00
7376;BME280;3728;42.266;24.944;2022-12-05T06:34:39;100790.97;;;8.91;100.00
7376;BME280;3728;42.266;24.944;2022-12-05T06:37:07;100794.63;;;8.95;100.00
7376;BME280;3728;42.266;24.944;2022-12-05T06:39:34;100797.25;;;9.01;100.00
7376;BME280;3728;42.266;24.944;2022-12-05T06:42:02;100804.88;;;9.17;100.00
7376;BME280;3728;42.266;24.944;2022-12-05T06:44:30;100805.63;;;9.13;100.00
7376;BME280;3728;42.266;24.944;2022-12-05T06:46:57;100801.47;;;9.17;100.00
7376;BME280;3728;42.266;24.944;2022-12-05T06:49:25;100806.66;;;9.12;100.00
7376;BME280;3728;42.266;24.944;2022-12-05T06:52:03;100816.34;;;9.06;100.00
7376;BME280;3728;42.266;24.944;2022-12-05T06:54:31;100819.28;;;9.35;100.00
7376;BME280;3728;42.266;24.944;2022-12-05T06:56:58;100819.81;;;9.62;100.00
7376;BME280;3728;42.266;24.944;2022-12-05T06:59:29;100831.56;;;9.54;100.00
7376;BME280;3728;42.266;24.944;2022-12-05T07:01:56;100827.66;;;9.42;100.00
7376;BME280;3728;42.266;24.944;2022-12-05T07:04:24;100828.44;;;9.32;100.00
7376;BME280;3728;42.266;24.944;2022-12-05T07:06:53;100825.53;;;9.24;100.00
7376;BME280;3728;42.266;24.944;2022-12-05T07:09:23;100830.75;;;9.24;100.00
7376;BME280;3728;42.266;24.944;2022-12-05T07:12:12;100827.13;;;9.35;100.00
7376;BME280;3728;42.266;24.944;2022-12-05T07:14:41;100831.53;;;9.19;100.00
7376;BME280;3728;42.266;24.944;2022-12-05T07:17:19;100834.16;;;9.29;100.00
7376;BME280;3728;42.266;24.944;2022-12-05T07:19:50;100835.97;;;9.24;100.00
7376;BME280;3728;42.266;24.944;2022-12-05T07:22:20;100829.97;;;9.33;100.00
7376;BME280;3728;42.266;24.944;2022-12-05T07:24:50;100837.59;;;9.35;100.00
7376;BME280;3728;42.266;24.944;2022-12-05T07:27:18;100831.28;;;9.31;100.00
7376;BME280;3728;42.266;24.944;2022-12-05T07:29:52;100832.34;;;9.30;100.00
7376;BME280;3728;42.266;24.944;2022-12-05T07:32:20;100831.28;;;9.26;100.00
7376;BME280;3728;42.266;24.944;2022-12-05T07:34:48;100837.56;;;9.40;100.00
7376;BME280;3728;42.266;24.944;2022-12-05T07:37:21;100836.53;;;9.36;100.00
7376;BME280;3728;42.266;24.944;2022-12-05T07:39:53;100843.09;;;9.53;100.00
7376;BME280;3728;42.266;24.944;2022-12-05T07:42:24;100839.19;;;9.76;100.00
7376;BME280;3728;42.266;24.944;2022-12-05T07:44:51;100835.50;;;9.57;100.00
7376;BME280;3728;42.266;24.944;2022-12-05T07:47:19;100828.72;;;9.56;100.00
7376;BME280;3728;42.266;24.944;2022-12-05T07:49:46;100827.13;;;9.55;100.00
7376;BME280;3728;42.266;24.944;2022-12-05T07:52:14;100831.34;;;9.51;100.00
7376;BME280;3728;42.266;24.944;2022-12-05T07:54:41;100836.56;;;9.51;100.00
7376;BME280;3728;42.266;24.944;2022-12-05T07:57:09;100823.50;;;9.56;100.00
7376;BME280;3728;42.266;24.944;2022-12-05T07:59:36;100826.09;;;9.66;100.00
7376;BME280;3728;42.266;24.944;2022-12-05T08:02:04;100832.91;;;9.67;100.00
7376;BME280;3728;42.266;24.944;2022-12-05T08:04:32;100826.34;;;9.59;100.00
7376;BME280;3728;42.266;24.944;2022-12-05T08:06:59;100835.25;;;9.74;100.00
7376;BME280;3728;42.266;24.944;2022-12-05T08:09:27;100824.25;;;9.56;100.00
7376;BME280;3728;42.266;24.944;2022-12-05T08:11:54;100826.09;;;9.76;100.00
7376;BME280;3728;42.266;24.944;2022-12-05T08:14:22;100825.06;;;9.67;100.00
7376;BME280;3728;42.266;24.944;2022-12-05T08:16:49;100832.91;;;9.62;100.00
7376;BME280;3728;42.266;24.944;2022-12-05T08:19:17;100832.91;;;9.72;100.00
7376;BME280;3728;42.266;24.944;2022-12-05T08:21:45;100826.09;;;9.86;100.00
7376;BME280;3728;42.266;24.944;2022-12-05T08:24:12;100832.91;;;9.97;100.00
7376;BME280;3728;42.266;24.944;2022-12-05T08:26:40;100830.56;;;9.91;100.00
7376;BME280;3728;42.266;24.944;2022-12-05T08:29:10;100833.69;;;9.88;100.00
7376;BME280;3728;42.266;24.944;2022-12-05T08:31:44;100828.19;;;9.94;100.00
7376;BME280;3728;42.266;24.944;2022-12-05T08:34:14;100827.91;;;10.21;98.30
7376;BME280;3728;42.266;24.944;2022-12-05T08:36:43;100829.22;;;10.13;99.91
7376;BME280;3728;42.266;24.944;2022-12-05T08:39:14;100818.22;;;10.01;99.99
7376;BME280;3728;42.266;24.944;2022-12-05T08:41:43;100820.06;;;10.21;97.04
7376;BME280;3728;42.266;24.944;2022-12-05T08:44:12;100825.31;;;10.16;98.26
7376;BME280;3728;42.266;24.944;2022-12-05T08:46:44;100822.38;;;10.43;95.18
7376;BME280;3728;42.266;24.944;2022-12-05T08:49:13;100822.88;;;10.50;91.28
7376;BME280;3728;42.266;24.944;2022-12-05T08:51:41;100826.81;;;10.52;91.31
7376;BME280;3728;42.266;24.944;2022-12-05T08:54:09;100818.47;;;10.40;92.79
7376;BME280;3728;42.266;24.944;2022-12-05T08:56:37;100814.16;;;10.69;90.48
7376;BME280;3728;42.266;24.944;2022-12-05T08:59:05;100815.19;;;10.78;90.23
7376;BME280;3728;42.266;24.944;2022-12-05T09:01:34;100808.19;;;10.54;93.42
7376;BME280;3728;42.266;24.944;2022-12-05T09:04:04;100804.97;;;10.72;93.29
7376;BME280;3728;42.266;24.944;2022-12-05T09:06:33;100798.66;;;10.83;93.41
7376;BME280;3728;42.266;24.944;2022-12-05T09:09:04;100799.19;;;10.75;92.43
7376;BME280;3728;42.266;24.944;2022-12-05T09:11:37;100801.97;;;10.98;96.12
7376;BME280;3728;42.266;24.944;2022-12-05T09:14:07;100800.06;;;11.87;91.29
7376;BME280;3728;42.266;24.944;2022-12-05T09:16:36;100802.31;;;12.69;80.12
7376;BME280;3728;42.266;24.944;2022-12-05T09:19:14;100787.66;;;13.06;77.08
7376;BME280;3728;42.266;24.944;2022-12-05T09:21:46;100789.16;;;13.12;77.17
7376;BME280;3728;42.266;24.944;2022-12-05T09:24:14;100782.84;;;12.70;77.73
7376;BME280;3728;42.266;24.944;2022-12-05T09:26:41;100783.31;;;12.54;78.12
7376;BME280;3728;42.266;24.944;2022-12-05T09:29:13;100777.28;;;12.29;79.14
7376;BME280;3728;42.266;24.944;2022-12-05T09:31:45;100781.13;;;12.79;76.55
7376;BME280;3728;42.266;24.944;2022-12-05T09:34:14;100770.22;;;13.28;73.07
7376;BME280;3728;42.266;24.944;2022-12-05T09:36:45;100757.97;;;13.83;70.88
7376;BME280;3728;42.266;24.944;2022-12-05T09:39:23;100759.56;;;14.11;70.93
7376;BME280;3728;42.266;24.944;2022-12-05T09:45:03;100752.88;;;14.82;63.41
7376;BME280;3728;42.266;24.944;2022-12-05T09:47:43;100751.75;;;14.74;59.75
7376;BME280;3728;42.266;24.944;2022-12-05T09:50:18;100747.78;;;14.22;62.31
7376;BME280;3728;42.266;24.944;2022-12-05T09:53:03;100744.47;;;14.03;63.93
7376;BME280;3728;42.266;24.944;2022-12-05T09:58:20;100725.53;;;13.42;60.88
7376;BME280;3728;42.266;24.944;2022-12-05T10:01:03;100725.84;;;13.22;63.44
7376;BME280;3728;42.266;24.944;2022-12-05T10:03:44;100739.44;;;13.10;64.28
7376;BME280;3728;42.266;24.944;2022-12-05T10:06:24;100738.78;;;13.37;63.91
7376;BME280;3728;42.266;24.944;2022-12-05T10:09:26;100727.47;;;13.36;67.48
7376;BME280;3728;42.266;24.944;2022-12-05T10:18:00;100737.03;;;13.46;67.25
7376;BME280;3728;42.266;24.944;2022-12-05T10:20:34;100723.03;;;13.18;70.31
7376;BME280;3728;42.266;24.944;2022-12-05T10:23:31;100723.09;;;13.45;66.55
7376;BME280;3728;42.266;24.944;2022-12-05T10:26:26;100720.31;;;13.55;62.18
7376;BME280;3728;42.266;24.944;2022-12-05T10:32:06;100718.44;;;13.05;64.10
7376;BME280;3728;42.266;24.944;2022-12-05T10:34:41;100715.91;;;12.81;67.06
7376;BME280;3728;42.266;24.944;2022-12-05T10:37:18;100719.75;;;12.89;66.25
7376;BME280;3728;42.266;24.944;2022-12-05T10:39:49;100713.50;;;12.85;65.52
7376;BME280;3728;42.266;24.944;2022-12-05T10:42:27;100711.72;;;12.43;67.26
7376;BME280;3728;42.266;24.944;2022-12-05T10:45:03;100699.50;;;12.71;67.84
7376;BME280;3728;42.266;24.944;2022-12-05T10:47:33;100700.97;;;12.95;66.00
7376;BME280;3728;42.266;24.944;2022-12-05T10:50:09;100698.94;;;12.92;66.14
7376;BME280;3728;42.266;24.944;2022-12-05T10:53:05;100693.53;;;12.65;68.11
7376;BME280;3728;42.266;24.944;2022-12-05T10:55:36;100697.31;;;12.59;68.77
7376;BME280;3728;42.266;24.944;2022-12-05T10:58:28;100693.72;;;12.13;72.79
7376;BME280;3728;42.266;24.944;2022-12-05T11:01:09;100693.44;;;11.91;74.75
7376;BME280;3728;42.266;24.944;2022-12-05T11:03:41;100686.06;;;12.35;72.69
7376;BME280;3728;42.266;24.944;2022-12-05T11:06:22;100695.31;;;12.09;73.48
7376;BME280;3728;42.266;24.944;2022-12-05T11:08:57;100681.53;;;12.41;71.98
7376;BME280;3728;42.266;24.944;2022-12-05T11:12:22;100684.66;;;12.00;75.24
7376;BME280;3728;42.266;24.944;2022-12-05T11:15:19;100677.03;;;11.99;75.08
7376;BME280;3728;42.266;24.944;2022-12-05T11:17:55;100678.38;;;12.20;73.59
7376;BME280;3728;42.266;24.944;2022-12-05T11:22:53;100682.22;;;13.02;68.22
7376;BME280;3728;42.266;24.944;2022-12-05T11:25:35;100671.66;;;12.70;69.20
7376;BME280;3728;42.266;24.944;2022-12-05T11:33:42;100655.81;;;12.19;73.29
7376;BME280;3728;42.266;24.944;2022-12-05T11:36:21;100648.00;;;12.14;73.80
7376;BME280;3728;42.266;24.944;2022-12-05T11:38:50;100644.47;;;12.00;74.79
7376;BME280;3728;42.266;24.944;2022-12-05T11:42:05;100633.03;;;11.91;76.94
7376;BME280;3728;42.266;24.944;2022-12-05T11:50:43;100631.06;;;12.01;76.09
7376;BME280;3728;42.266;24.944;2022-12-05T11:56:35;100635.56;;;12.01;76.64
7376;BME280;3728;42.266;24.944;2022-12-05T12:02:30;100638.84;;;12.30;73.94
7376;BME280;3728;42.266;24.944;2022-12-05T12:11:07;100625.56;;;12.03;75.06
7376;BME280;3728;42.266;24.944;2022-12-05T12:25:35;100627.34;;;12.07;75.29
7376;BME280;3728;42.266;24.944;2022-12-05T12:36:55;100618.84;;;11.92;74.73
7376;BME280;3728;42.266;24.944;2022-12-05T12:39:50;100610.53;;;11.85;74.50
7376;BME280;3728;42.266;24.944;2022-12-05T12:50:51;100601.97;;;11.98;74.33
7376;BME280;3728;42.266;24.944;2022-12-05T13:05:26;100600.25;;;11.41;77.84
7376;BME280;3728;42.266;24.944;2022-12-05T13:08:05;100600.84;;;11.56;76.85
7376;BME280;3728;42.266;24.944;2022-12-05T13:10:43;100595.28;;;11.63;77.22
7376;BME280;3728;42.266;24.944;2022-12-05T13:13:18;100606.22;;;11.46;79.04
7376;BME280;3728;42.266;24.944;2022-12-05T13:15:52;100593.50;;;11.58;78.58
7376;BME280;3728;42.266;24.944;2022-12-05T13:18:26;100595.91;;;11.55;78.09
7376;BME280;3728;42.266;24.944;2022-12-05T13:20:57;100591.94;;;11.57;77.29
7376;BME280;3728;42.266;24.944;2022-12-05T13:23:28;100593.59;;;11.77;75.74
7376;BME280;3728;42.266;24.944;2022-12-05T13:25:59;100585.91;;;11.81;75.88
7376;BME280;3728;42.266;24.944;2022-12-05T13:28:34;100589.09;;;11.78;76.76
7376;BME280;3728;42.266;24.944;2022-12-05T13:31:12;100586.09;;;11.89;76.02
7376;BME280;3728;42.266;24.944;2022-12-05T13:33:46;100584.16;;;11.95;76.28
7376;BME280;3728;42.266;24.944;2022-12-05T13:36:19;100587.44;;;12.05;76.33
7376;BME280;3728;42.266;24.944;2022-12-05T13:39:26;100581.56;;;11.71;77.85
7376;BME280;3728;42.266;24.944;2022-12-05T13:42:21;100582.69;;;11.89;75.96
7376;BME280;3728;42.266;24.944;2022-12-05T13:44:56;100583.22;;;11.86;76.59
7376;BME280;3728;42.266;24.944;2022-12-05T13:51:07;100576.16;;;11.86;77.91
7376;BME280;3728;42.266;24.944;2022-12-05T13:53:47;100577.44;;;11.89;76.51
7376;BME280;3728;42.266;24.944;2022-12-05T13:56:55;100576.19;;;11.81;75.88
7376;BME280;3728;42.266;24.944;2022-12-05T14:07:49;100578.09;;;11.76;77.14
7376;BME280;3728;42.266;24.944;2022-12-05T14:13:37;100582.34;;;11.72;77.04
7376;BME280;3728;42.266;24.944;2022-12-05T14:15:48;100578.91;;;11.95;76.38
7376;BME280;3728;42.266;24.944;2022-12-05T14:32:36;100581.75;;;11.04;81.74
7376;BME280;3728;42.266;24.944;2022-12-05T14:35:15;100576.72;;;11.07;82.59
7376;BME280;3728;42.266;24.944;2022-12-05T14:38:00;100587.97;;;11.08;82.53
7376;BME280;3728;42.266;24.944;2022-12-05T14:40:35;100584.19;;;10.95;83.31
7376;BME280;3728;42.266;24.944;2022-12-05T14:43:18;100591.41;;;11.08;83.00
7376;BME280;3728;42.266;24.944;2022-12-05T14:45:59;100580.41;;;11.06;83.54
7376;BME280;3728;42.266;24.944;2022-12-05T14:48:34;100585.56;;;10.87;84.43
7376;BME280;3728;42.266;24.944;2022-12-05T14:54:17;100593.25;;;11.31;82.60
7376;BME280;3728;42.266;24.944;2022-12-05T14:56:50;100595.34;;;11.34;82.75
7376;BME280;3728;42.266;24.944;2022-12-05T14:59:22;100598.72;;;11.11;83.17
7376;BME280;3728;42.266;24.944;2022-12-05T15:01:58;100599.84;;;11.00;83.95
7376;BME280;3728;42.266;24.944;2022-12-05T15:04:51;100595.34;;;11.06;84.70
7376;BME280;3728;42.266;24.944;2022-12-05T15:07:33;100599.84;;;11.29;82.72
7376;BME280;3728;42.266;24.944;2022-12-05T15:10:28;100585.34;;;11.36;82.26
7376;BME280;3728;42.266;24.944;2022-12-05T15:13:02;100593.50;;;11.35;82.16
7376;BME280;3728;42.266;24.944;2022-12-05T15:18:23;100594.00;;;11.08;83.35
7376;BME280;3728;42.266;24.944;2022-12-05T15:21:24;100589.91;;;10.68;86.51
7376;BME280;3728;42.266;24.944;2022-12-05T15:24:04;100585.13;;;10.75;87.03
7376;BME280;3728;42.266;24.944;2022-12-05T15:26:55;100588.53;;;10.76;88.86
7376;BME280;3728;42.266;24.944;2022-12-05T15:29:28;100587.38;;;10.53;89.00
7376;BME280;3728;42.266;24.944;2022-12-05T15:32:03;100593.50;;;10.77;88.61
7376;BME280;3728;42.266;24.944;2022-12-05T15:34:43;100581.75;;;10.70;89.05
7376;BME280;3728;42.266;24.944;2022-12-05T15:37:19;100586.47;;;11.30;85.55
7376;BME280;3728;42.266;24.944;2022-12-05T15:39:59;100582.94;;;10.87;86.94
7376;BME280;3728;42.266;24.944;2022-12-05T15:42:35;100575.91;;;11.35;84.61
7376;BME280;3728;42.266;24.944;2022-12-05T15:47:49;100579.16;;;10.98;86.19
7376;BME280;3728;42.266;24.944;2022-12-05T15:50:47;100579.09;;;10.75;86.24
7376;BME280;3728;42.266;24.944;2022-12-05T15:53:39;100580.06;;;10.84;86.91
7376;BME280;3728;42.266;24.944;2022-12-05T15:56:29;100577.06;;;10.33;89.18
7376;BME280;3728;42.266;24.944;2022-12-05T15:59:18;100585.28;;;10.11;91.83
7376;BME280;3728;42.266;24.944;2022-12-05T16:01:54;100590.25;;;10.08;94.30
7376;BME280;3728;42.266;24.944;2022-12-05T16:04:35;100589.22;;;10.04;96.04
7376;BME280;3728;42.266;24.944;2022-12-05T16:07:10;100583.47;;;10.02;96.09
7376;BME280;3728;42.266;24.944;2022-12-05T16:09:42;100586.34;;;10.05;97.29
7376;BME280;3728;42.266;24.944;2022-12-05T16:12:21;100592.63;;;10.04;98.08
7376;BME280;3728;42.266;24.944;2022-12-05T16:15:00;100590.81;;;10.00;96.84
7376;BME280;3728;42.266;24.944;2022-12-05T16:17:51;100590.50;;;10.16;93.23
7376;BME280;3728;42.266;24.944;2022-12-05T16:20:32;100581.69;;;10.41;89.81